Time;durP1;ratioP1;P1;durP2;ratioP2;P2;SDS_P1;SDS_P2;PMS_P1;PMS_P2;Temp;Humidity;BMP_temperature;BMP_pressure;BME280_temperature;BME280_humidity;BME280_pressure;Samples;Min_cycle;Max_cycle;Signal;HPM_P1;HPM_P2
2023/02/22 00:00:49;;;;;;;28.13;11.77;;;4.80;99.90;;;;;;5074482;28;20036;-80
2023/02/22 00:03:26;;;;;;;47.88;17.60;;;4.90;99.90;;;;;;5076182;28;20046;-80
2023/02/22 00:05:58;;;;;;;118.95;48.45;;;4.90;99.90;;;;;;5076014;28;20363;-80
2023/02/22 00:08:29;;;;;;;32.10;11.65;;;4.90;99.90;;;;;;5076224;28;20031;-80
2023/02/22 00:10:55;;;;;;;24.42;10.98;;;4.90;99.90;;;;;;5074669;28;20024;-80
2023/02/22 00:13:21;;;;;;;26.65;10.32;;;4.90;99.90;;;;;;5074882;28;20072;-80
2023/02/22 00:15:47;;;;;;;31.95;11.88;;;4.90;99.90;;;;;;5075753;28;20017;-80
2023/02/22 00:18:16;;;;;;;23.00;9.90;;;4.80;99.90;;;;;;5074513;28;20021;-80
2023/02/22 00:20:42;;;;;;;19.45;8.30;;;4.80;99.90;;;;;;5074269;28;20028;-80
2023/02/22 00:23:13;;;;;;;20.92;7.68;;;4.70;99.90;;;;;;5075644;28;20057;-80
2023/02/22 00:25:39;;;;;;;28.63;9.18;;;4.70;99.90;;;;;;5075595;28;20021;-80
2023/02/22 00:28:05;;;;;;;30.02;10.02;;;4.70;99.90;;;;;;5074569;28;20381;-80
2023/02/22 00:30:32;;;;;;;29.00;10.77;;;4.60;99.90;;;;;;5075374;28;20017;-80
2023/02/22 00:32:58;;;;;;;23.92;9.48;;;4.60;99.90;;;;;;5075607;28;20060;-79
2023/02/22 00:35:27;;;;;;;29.67;10.52;;;4.60;99.90;;;;;;5075744;28;20020;-78
2023/02/22 00:37:55;;;;;;;26.63;11.25;;;4.60;99.90;;;;;;5074381;28;20025;-81
2023/02/22 00:40:23;;;;;;;32.50;11.10;;;4.60;99.90;;;;;;5075328;28;20027;-81
2023/02/22 00:42:49;;;;;;;29.48;10.27;;;4.60;99.90;;;;;;5075515;28;20021;-81
2023/02/22 00:45:17;;;;;;;27.65;10.10;;;4.50;99.90;;;;;;5075064;28;20045;-80
2023/02/22 00:47:43;;;;;;;32.88;10.45;;;4.60;99.90;;;;;;5075571;28;20025;-81
2023/02/22 00:50:10;;;;;;;28.80;10.77;;;4.50;99.90;;;;;;5075343;28;20108;-80
2023/02/22 00:52:37;;;;;;;27.55;11.60;;;4.50;99.90;;;;;;5075168;28;20033;-80
2023/02/22 00:55:06;;;;;;;24.58;8.95;;;4.50;99.90;;;;;;5075107;28;20024;-81
2023/02/22 00:57:33;;;;;;;21.60;9.32;;;4.40;99.90;;;;;;5075355;28;20055;-81
2023/02/22 01:00:10;;;;;;;32.58;11.70;;;4.40;99.90;;;;;;5074960;28;20492;-80
2023/02/22 01:02:39;;;;;;;28.58;10.05;;;4.40;99.90;;;;;;5073369;28;20474;-80
2023/02/22 01:05:08;;;;;;;26.33;9.98;;;4.40;99.90;;;;;;5075174;28;20028;-81
2023/02/22 01:07:34;;;;;;;26.95;11.27;;;4.40;99.90;;;;;;5073566;28;20482;-81
2023/02/22 01:10:01;;;;;;;24.42;10.82;;;4.40;99.90;;;;;;5073874;28;20032;-81
2023/02/22 01:12:28;;;;;;;27.65;10.88;;;4.40;99.90;;;;;;5073437;28;20051;-81
2023/02/22 01:14:55;;;;;;;27.35;11.35;;;4.40;99.90;;;;;;5074827;28;20029;-81
2023/02/22 01:17:22;;;;;;;23.52;9.50;;;4.40;99.90;;;;;;5074747;28;20016;-80
2023/02/22 01:19:48;;;;;;;27.40;10.00;;;4.40;99.90;;;;;;5074871;28;20107;-80
2023/02/22 01:22:14;;;;;;;27.38;11.48;;;4.50;99.90;;;;;;5074829;28;20045;-84
2023/02/22 01:24:40;;;;;;;34.20;12.38;;;4.50;99.90;;;;;;5074745;28;20374;-81
2023/02/22 01:27:05;;;;;;;31.85;9.52;;;4.50;99.90;;;;;;5073072;28;20017;-80
2023/02/22 01:29:31;;;;;;;22.40;9.10;;;4.40;99.90;;;;;;5074359;28;20021;-80
2023/02/22 01:31:56;;;;;;;25.80;11.00;;;4.30;99.90;;;;;;5072960;28;20047;-80
2023/02/22 01:34:23;;;;;;;19.33;8.00;;;4.30;99.90;;;;;;5072897;28;20020;-80
2023/02/22 01:36:49;;;;;;;23.13;9.55;;;4.30;99.90;;;;;;5073169;28;20021;-80
2023/02/22 01:39:16;;;;;;;25.52;9.68;;;4.20;99.90;;;;;;5074398;28;20051;-78
2023/02/22 01:41:44;;;;;;;23.20;10.00;;;4.20;99.90;;;;;;5073992;28;20029;-78
2023/02/22 01:44:31;;;;;;;32.25;10.57;;;4.20;99.90;;;;;;5072993;28;20048;-80
2023/02/22 01:46:58;;;;;;;22.35;8.45;;;4.20;99.90;;;;;;5074527;28;20060;-80
2023/02/22 01:49:37;;;;;;;19.02;8.52;;;4.20;99.90;;;;;;5074220;28;20017;-80
2023/02/22 01:52:07;;;;;;;20.42;8.32;;;4.20;99.90;;;;;;5074179;28;20094;-80
2023/02/22 01:54:39;;;;;;;23.23;8.80;;;4.10;99.90;;;;;;5072895;28;20017;-80
2023/02/22 01:57:14;;;;;;;24.35;8.98;;;4.20;99.90;;;;;;5074318;28;20422;-80
2023/02/22 01:59:45;;;;;;;25.98;8.52;;;4.20;99.90;;;;;;5073772;28;20035;-79
2023/02/22 02:02:12;;;;;;;23.75;8.15;;;4.20;99.90;;;;;;5073652;28;20024;-81
2023/02/22 02:04:41;;;;;;;35.78;10.43;;;4.20;99.90;;;;;;5073649;28;20469;-81
2023/02/22 02:07:09;;;;;;;23.20;9.68;;;4.20;99.90;;;;;;5064393;28;20028;-82
2023/02/22 02:09:41;;;;;;;24.25;8.60;;;4.20;99.90;;;;;;5053687;28;20049;-82
2023/02/22 02:12:08;;;;;;;20.10;8.10;;;4.10;99.90;;;;;;5053712;28;20067;-83
2023/02/22 02:14:39;;;;;;;25.20;8.00;;;4.20;99.90;;;;;;5052500;28;20024;-82
2023/02/22 02:17:10;;;;;;;23.88;7.35;;;4.10;99.90;;;;;;5052680;28;20382;-82
2023/02/22 02:20:11;;;;;;;32.47;14.95;;;4.10;99.90;;;;;;5052315;28;20056;-81
2023/02/22 02:22:43;;;;;;;31.50;14.15;;;4.10;99.90;;;;;;5021322;28;20029;-81
2023/02/22 02:25:27;;;;;;;28.42;11.00;;;4.10;99.90;;;;;;5052001;28;20359;-82
2023/02/22 02:28:15;;;;;;;20.77;9.48;;;4.20;99.90;;;;;;5053344;28;20024;-81
2023/02/22 02:30:58;;;;;;;24.77;9.00;;;4.10;99.90;;;;;;5051893;28;20017;-81
2023/02/22 02:33:47;;;;;;;20.83;8.75;;;4.20;99.90;;;;;;5052404;28;20048;-81
2023/02/22 02:36:35;;;;;;;24.73;8.13;;;4.20;99.90;;;;;;5052428;28;20021;-82
2023/02/22 02:39:13;;;;;;;20.13;7.35;;;4.20;99.90;;;;;;5051804;28;20027;-82
2023/02/22 02:41:44;;;;;;;21.60;6.85;;;4.20;99.90;;;;;;5053354;28;20029;-82
2023/02/22 02:44:29;;;;;;;25.75;6.40;;;4.20;99.90;;;;;;5053091;28;20131;-81
2023/02/22 02:47:00;;;;;;;21.23;7.95;;;4.10;99.90;;;;;;5052773;28;20098;-82
2023/02/22 02:49:35;;;;;;;37.20;16.25;;;4.10;99.90;;;;;;5053533;28;20111;-82
2023/02/22 02:52:03;;;;;;;68.00;28.83;;;4.10;99.90;;;;;;5050930;28;20040;-81
2023/02/22 02:54:30;;;;;;;47.22;20.00;;;4.10;99.90;;;;;;5053191;28;20013;-82
2023/02/22 02:56:57;;;;;;;35.55;14.93;;;4.00;99.90;;;;;;5053034;28;20025;-82
2023/02/22 02:59:22;;;;;;;49.17;22.15;;;4.00;99.90;;;;;;5051749;28;20052;-82
2023/02/22 03:02:10;;;;;;;75.90;30.92;;;3.90;99.90;;;;;;5052508;28;20139;-82
2023/02/22 03:05:02;;;;;;;38.45;17.25;;;3.90;99.90;;;;;;5038831;28;20035;-82
2023/02/22 03:07:46;;;;;;;62.20;24.30;;;3.90;99.90;;;;;;5052946;28;20108;-82
2023/02/22 03:10:30;;;;;;;67.15;26.52;;;3.90;99.90;;;;;;5053014;28;20032;-81
2023/02/22 03:13:02;;;;;;;81.72;30.17;;;3.90;99.90;;;;;;5051682;28;20037;-82
2023/02/22 03:15:51;;;;;;;63.95;25.25;;;3.90;99.90;;;;;;5052724;28;20025;-81
2023/02/22 03:18:27;;;;;;;34.28;13.38;;;3.90;99.90;;;;;;5053007;28;20029;-82
2023/02/22 03:21:15;;;;;;;19.20;7.85;;;3.90;99.90;;;;;;5052813;28;20032;-82
2023/02/22 03:24:19;;;;;;;16.42;6.82;;;3.90;99.90;;;;;;5052632;28;20040;-81
2023/02/22 03:27:02;;;;;;;20.88;7.47;;;3.90;99.90;;;;;;5031774;28;20022;-80
2023/02/22 03:29:34;;;;;;;18.58;6.40;;;3.80;99.90;;;;;;5032692;28;20505;-83
2023/02/22 03:32:02;;;;;;;16.35;6.35;;;3.90;99.90;;;;;;5031574;28;20025;-83
2023/02/22 03:34:34;;;;;;;23.45;7.57;;;3.80;99.90;;;;;;5031308;28;20026;-83
2023/02/22 03:37:05;;;;;;;20.42;6.15;;;3.80;99.90;;;;;;5032868;28;20025;-83
2023/02/22 03:39:34;;;;;;;21.63;6.97;;;3.70;99.90;;;;;;5031763;28;20026;-82
2023/02/22 03:42:05;;;;;;;23.60;6.45;;;3.70;99.90;;;;;;5032590;28;20025;-82
2023/02/22 03:44:36;;;;;;;20.55;6.18;;;3.70;99.90;;;;;;5032655;28;20025;-83
2023/02/22 03:47:07;;;;;;;23.88;7.18;;;3.70;99.90;;;;;;5032708;28;20486;-85
2023/02/22 03:49:39;;;;;;;17.58;6.20;;;3.60;99.90;;;;;;5032504;28;20056;-85
2023/02/22 03:52:06;;;;;;;25.73;7.70;;;3.60;99.90;;;;;;5032741;28;20522;-85
2023/02/22 03:54:33;;;;;;;24.85;6.97;;;3.50;99.90;;;;;;5032653;28;20017;-85
2023/02/22 03:57:08;;;;;;;28.85;11.38;;;3.40;99.90;;;;;;5031311;28;20056;-84
2023/02/22 03:59:34;;;;;;;31.65;11.60;;;3.40;99.90;;;;;;5030995;28;20029;-84
2023/02/22 04:02:01;;;;;;;27.85;10.82;;;3.30;99.90;;;;;;5031141;28;20510;-85
2023/02/22 04:04:26;;;;;;;28.23;9.18;;;3.20;99.90;;;;;;5035094;28;20497;-84
2023/02/22 04:06:52;;;;;;;19.83;7.72;;;3.20;99.90;;;;;;5035924;28;20021;-84
2023/02/22 04:09:18;;;;;;;20.42;7.93;;;3.10;99.90;;;;;;5036538;28;20101;-80
2023/02/22 04:11:44;;;;;;;15.45;8.10;;;3.00;99.90;;;;;;5036060;28;20029;-80
2023/02/22 04:14:10;;;;;;;18.55;7.95;;;3.00;99.90;;;;;;5036231;28;20032;-80
2023/02/22 04:16:36;;;;;;;24.00;7.63;;;2.90;99.90;;;;;;5035139;28;20104;-79
2023/02/22 04:19:01;;;;;;;18.92;7.40;;;2.80;99.90;;;;;;5034581;28;20136;-81
2023/02/22 04:21:27;;;;;;;23.27;8.40;;;2.80;99.90;;;;;;5034598;28;20033;-81
2023/02/22 04:23:53;;;;;;;15.65;6.78;;;2.80;99.90;;;;;;5035674;28;20032;-82
2023/02/22 04:26:18;;;;;;;17.80;7.00;;;2.70;99.90;;;;;;5035994;28;20076;-82
2023/02/22 04:28:44;;;;;;;13.82;6.75;;;2.70;99.90;;;;;;5035476;28;20128;-82
2023/02/22 04:31:10;;;;;;;20.80;7.40;;;2.60;99.90;;;;;;5035333;28;20030;-82
2023/02/22 04:33:35;;;;;;;21.70;7.53;;;2.70;99.90;;;;;;5035673;28;20029;-82
2023/02/22 04:36:01;;;;;;;19.10;6.90;;;2.60;99.90;;;;;;5034223;28;20112;-82
2023/02/22 04:38:27;;;;;;;16.17;6.38;;;2.60;99.90;;;;;;5034154;28;20025;-81
2023/02/22 04:40:54;;;;;;;16.73;7.30;;;2.50;99.90;;;;;;5034292;28;20021;-81
2023/02/22 04:43:20;;;;;;;19.05;7.30;;;2.50;99.90;;;;;;5035820;28;20398;-81
2023/02/22 04:45:46;;;;;;;24.17;7.57;;;2.60;99.90;;;;;;5035582;28;20128;-80
2023/02/22 04:48:11;;;;;;;22.75;6.93;;;2.60;99.90;;;;;;5035539;28;20053;-81
2023/02/22 04:50:38;;;;;;;20.83;9.43;;;2.60;99.90;;;;;;5035161;28;20045;-81
2023/02/22 04:53:03;;;;;;;28.02;10.48;;;2.60;99.90;;;;;;5034302;28;20037;-81
2023/02/22 04:55:29;;;;;;;33.15;12.75;;;2.60;99.90;;;;;;5035478;28;20044;-81
2023/02/22 04:57:56;;;;;;;31.70;11.63;;;2.60;99.90;;;;;;5033938;28;20375;-82
2023/02/22 05:00:22;;;;;;;22.98;10.93;;;2.60;99.90;;;;;;5033680;28;20518;-81
2023/02/22 05:02:49;;;;;;;29.23;11.40;;;2.60;99.90;;;;;;5035445;28;20014;-81
2023/02/22 05:05:16;;;;;;;31.70;12.68;;;2.70;99.90;;;;;;5035129;28;20030;-81
2023/02/22 05:07:42;;;;;;;34.70;15.90;;;2.70;99.90;;;;;;5034875;28;20052;-81
2023/02/22 05:10:08;;;;;;;37.13;15.13;;;2.70;99.90;;;;;;5035070;28;20387;-81
2023/02/22 05:12:35;;;;;;;34.42;15.27;;;2.70;99.90;;;;;;5033744;28;20034;-81
2023/02/22 05:15:01;;;;;;;30.52;13.57;;;2.70;99.90;;;;;;5033800;28;20473;-81
2023/02/22 05:17:27;;;;;;;26.15;10.32;;;2.70;99.90;;;;;;5033606;28;20064;-84
2023/02/22 05:19:52;;;;;;;30.80;11.18;;;2.70;99.90;;;;;;5034811;28;20040;-84
2023/02/22 05:22:18;;;;;;;20.13;8.85;;;2.70;99.90;;;;;;5034759;28;20022;-84
2023/02/22 05:24:44;;;;;;;20.58;9.55;;;2.70;99.90;;;;;;5034704;28;20383;-85
2023/02/22 05:27:10;;;;;;;25.55;11.40;;;2.70;99.90;;;;;;5034860;28;20459;-84
2023/02/22 05:29:37;;;;;;;25.38;9.40;;;2.70;99.90;;;;;;5034539;28;20100;-82
2023/02/22 05:32:03;;;;;;;24.10;9.27;;;2.70;99.90;;;;;;5032841;28;20053;-84
2023/02/22 05:34:29;;;;;;;24.27;10.43;;;2.70;99.90;;;;;;5034795;28;20029;-83
2023/02/22 05:36:55;;;;;;;22.15;8.93;;;2.70;99.90;;;;;;5033134;28;20109;-83
2023/02/22 05:39:21;;;;;;;22.60;8.77;;;2.70;99.90;;;;;;5034179;28;20033;-83
2023/02/22 05:41:47;;;;;;;21.40;9.48;;;2.70;99.90;;;;;;5033363;28;20021;-82
2023/02/22 05:44:12;;;;;;;20.13;10.43;;;2.70;99.90;;;;;;5033264;28;20025;-83
2023/02/22 05:46:38;;;;;;;36.60;13.75;;;2.70;99.90;;;;;;5034019;28;20052;-84
2023/02/22 05:49:04;;;;;;;45.47;17.25;;;2.80;99.90;;;;;;5032383;28;20083;-84
2023/02/22 05:51:30;;;;;;;40.70;18.42;;;2.70;99.90;;;;;;5032647;28;20021;-83
2023/02/22 05:53:56;;;;;;;40.40;14.98;;;2.80;99.90;;;;;;5034008;28;20450;-82
2023/02/22 05:56:27;;;;;;;50.70;18.10;;;2.80;99.90;;;;;;5033905;28;20501;-83
2023/02/22 05:58:53;;;;;;;50.90;19.90;;;2.80;99.90;;;;;;5033994;28;20029;-79
2023/02/22 06:01:19;;;;;;;38.22;16.90;;;2.80;99.90;;;;;;5032357;28;20025;-80
2023/02/22 06:03:49;;;;;;;34.88;15.75;;;2.80;99.90;;;;;;5033744;28;20029;-80
2023/02/22 06:06:15;;;;;;;38.95;18.15;;;2.90;99.90;;;;;;5033655;28;20029;-80
2023/02/22 06:08:41;;;;;;;50.85;19.05;;;2.90;99.90;;;;;;5033807;28;20570;-80
2023/02/22 06:11:08;;;;;;;48.10;18.58;;;2.80;99.90;;;;;;5033796;28;20033;-80
2023/02/22 06:13:34;;;;;;;42.30;18.77;;;2.90;99.90;;;;;;5033339;28;20037;-80
2023/02/22 06:16:00;;;;;;;40.92;18.48;;;2.90;99.90;;;;;;5033619;28;20040;-80
2023/02/22 06:18:29;;;;;;;47.47;20.98;;;2.90;99.90;;;;;;5032678;28;20025;-80
2023/02/22 06:20:54;;;;;;;36.92;19.75;;;3.00;99.90;;;;;;5033254;28;20379;-80
2023/02/22 06:23:20;;;;;;;73.18;28.13;;;3.00;99.90;;;;;;5033715;28;20034;-80
2023/02/22 06:25:47;;;;;;;59.92;24.15;;;3.00;99.90;;;;;;5032334;28;20033;-84
2023/02/22 06:28:13;;;;;;;82.78;35.75;;;3.00;99.90;;;;;;5033099;28;20021;-83
2023/02/22 06:30:39;;;;;;;70.07;32.33;;;3.00;99.90;;;;;;5033321;28;20143;-82
2023/02/22 06:33:05;;;;;;;54.72;29.30;;;3.10;99.90;;;;;;5031630;28;20036;-82
2023/02/22 06:35:31;;;;;;;60.38;29.35;;;3.10;99.90;;;;;;5033247;28;20026;-82
2023/02/22 06:37:56;;;;;;;73.97;28.13;;;3.10;99.90;;;;;;5033075;28;20087;-82
2023/02/22 06:40:22;;;;;;;45.10;18.35;;;3.20;99.90;;;;;;5033159;28;20368;-80
2023/02/22 06:42:48;;;;;;;40.92;18.80;;;3.20;99.90;;;;;;5033318;28;20056;-80
2023/02/22 06:45:15;;;;;;;46.10;21.15;;;3.20;99.90;;;;;;5032673;28;20081;-84
2023/02/22 06:47:42;;;;;;;68.30;30.45;;;3.30;99.90;;;;;;5032799;28;20027;-85
2023/02/22 06:50:23;;;;;;;87.75;34.17;;;3.30;99.90;;;;;;5033080;28;20518;-84
2023/02/22 06:52:49;;;;;;;96.38;43.65;;;3.40;99.90;;;;;;5031475;28;20041;-84
2023/02/22 06:55:17;;;;;;;109.47;43.30;;;3.40;99.90;;;;;;5031374;28;20075;-83
2023/02/22 06:57:43;;;;;;;114.93;51.03;;;3.50;99.90;;;;;;5032580;28;20022;-83
2023/02/22 07:00:09;;;;;;;134.55;59.17;;;3.50;99.90;;;;;;5032775;28;20083;-86
2023/02/22 07:02:36;;;;;;;124.03;54.78;;;3.50;99.90;;;;;;5032659;28;20025;-85
2023/02/22 07:05:02;;;;;;;92.85;40.25;;;3.60;99.90;;;;;;5031820;28;20029;-84
2023/02/22 07:07:28;;;;;;;132.98;52.30;;;3.60;99.90;;;;;;5032705;28;20052;-82
2023/02/22 07:09:54;;;;;;;80.25;32.08;;;3.70;99.90;;;;;;5032615;28;20459;-84
2023/02/22 07:12:20;;;;;;;43.85;17.33;;;3.70;99.90;;;;;;5049531;28;20052;-80
2023/02/22 07:14:46;;;;;;;48.40;22.55;;;3.70;99.90;;;;;;5051136;28;20028;-80
2023/02/22 07:17:11;;;;;;;54.55;26.60;;;3.80;99.90;;;;;;5064878;28;20367;-80
2023/02/22 07:19:37;;;;;;;59.33;28.05;;;3.80;99.90;;;;;;5072466;28;20039;-80
2023/02/22 07:22:03;;;;;;;63.63;28.52;;;3.90;99.90;;;;;;5072496;28;20394;-80
2023/02/22 07:24:28;;;;;;;42.92;17.17;;;4.00;99.90;;;;;;5069370;28;20032;-80
2023/02/22 07:26:54;;;;;;;37.92;14.40;;;4.00;99.90;;;;;;5071433;28;20442;-81
2023/02/22 07:29:21;;;;;;;27.60;11.80;;;4.10;99.90;;;;;;5071165;28;20494;-80
2023/02/22 07:31:47;;;;;;;30.10;13.40;;;4.10;99.90;;;;;;5072530;28;20037;-80
2023/02/22 07:34:13;;;;;;;31.08;13.20;;;4.20;99.90;;;;;;5073108;28;20052;-80
2023/02/22 07:36:38;;;;;;;29.15;12.73;;;4.20;99.90;;;;;;5072753;28;20128;-83
2023/02/22 07:39:07;;;;;;;31.25;12.68;;;4.30;99.90;;;;;;5073437;28;20081;-83
2023/02/22 07:41:33;;;;;;;28.13;12.50;;;4.30;99.90;;;;;;5036744;28;20036;-80
2023/02/22 07:43:59;;;;;;;38.97;15.00;;;4.40;99.90;;;;;;5032708;28;20018;-80
2023/02/22 07:46:24;;;;;;;27.83;12.25;;;4.40;99.90;;;;;;5066239;28;20063;-81
2023/02/22 07:48:50;;;;;;;27.85;14.65;;;4.50;99.90;;;;;;5051831;28;20021;-82
2023/02/22 07:51:16;;;;;;;31.75;13.23;;;4.60;99.90;;;;;;5051081;28;20037;-81
2023/02/22 07:53:42;;;;;;;57.70;24.67;;;4.60;99.90;;;;;;5049722;28;20607;-81
2023/02/22 07:56:08;;;;;;;37.70;17.17;;;4.80;99.90;;;;;;5051377;28;20033;-82
2023/02/22 07:58:34;;;;;;;47.70;18.33;;;4.80;99.90;;;;;;5052515;28;20032;-82
2023/02/22 08:01:03;;;;;;;86.25;34.42;;;4.80;99.90;;;;;;5059981;28;20039;-82
2023/02/22 08:03:35;;;;;;;35.58;15.18;;;4.90;99.90;;;;;;5065525;28;20035;-82
2023/02/22 08:06:01;;;;;;;28.98;10.68;;;4.90;99.70;;;;;;5070295;28;20120;-81
2023/02/22 08:08:27;;;;;;;23.38;6.82;;;4.90;95.90;;;;;;5063266;28;20023;-82
2023/02/22 08:10:53;;;;;;;30.60;10.90;;;5.00;94.70;;;;;;5067315;28;20036;-82
2023/02/22 08:13:21;;;;;;;58.97;25.52;;;5.10;91.70;;;;;;5063884;28;20485;-82
2023/02/22 08:15:48;;;;;;;47.97;19.25;;;5.10;88.80;;;;;;5060870;28;20512;-81
2023/02/22 08:18:16;;;;;;;51.28;22.50;;;5.10;86.50;;;;;;5059950;28;20021;-82
2023/02/22 08:20:43;;;;;;;73.88;29.77;;;5.20;91.20;;;;;;5057752;28;20604;-81
2023/02/22 08:23:11;;;;;;;51.90;20.30;;;5.20;91.70;;;;;;5058038;28;20025;-81
2023/02/22 08:25:36;;;;;;;29.48;11.57;;;5.10;89.90;;;;;;5056192;28;20021;-81
2023/02/22 08:28:05;;;;;;;43.70;14.23;;;5.10;84.80;;;;;;5059805;28;20028;-81
2023/02/22 08:30:33;;;;;;;11.00;5.00;;;5.20;82.50;;;;;;5061133;28;20025;-81
2023/02/22 08:33:01;;;;;;;12.75;4.97;;;5.20;75.10;;;;;;5060187;28;20040;-81
2023/02/22 08:35:27;;;;;;;40.20;10.90;;;5.30;76.10;;;;;;5063734;28;20024;-81
2023/02/22 08:37:57;;;;;;;22.15;5.75;;;5.30;76.20;;;;;;5062338;28;20041;-81
2023/02/22 08:40:26;;;;;;;39.63;16.20;;;5.30;75.80;;;;;;5062113;28;20028;-80
2023/02/22 08:42:52;;;;;;;58.47;23.60;;;5.20;74.20;;;;;;5059237;28;20091;-81
2023/02/22 08:45:18;;;;;;;32.95;12.95;;;5.20;74.50;;;;;;5062261;28;20048;-81
2023/02/22 08:47:44;;;;;;;13.30;5.18;;;5.20;75.10;;;;;;5060223;28;20503;-81
2023/02/22 08:50:20;;;;;;;43.05;19.67;;;5.20;76.30;;;;;;5058633;28;20028;-81
2023/02/22 08:52:45;;;;;;;24.48;9.27;;;5.20;78.50;;;;;;5053568;28;20051;-81
2023/02/22 08:55:11;;;;;;;33.60;12.90;;;5.20;77.00;;;;;;5054168;28;20013;-81
2023/02/22 08:57:37;;;;;;;68.60;30.15;;;5.30;77.70;;;;;;5060316;28;20085;-81
2023/02/22 09:00:06;;;;;;;11.88;6.40;;;5.30;77.70;;;;;;5062269;28;20021;-81
2023/02/22 09:02:31;;;;;;;49.80;22.45;;;5.30;73.90;;;;;;5061515;28;20041;-81
2023/02/22 09:04:57;;;;;;;30.95;12.70;;;5.40;73.80;;;;;;5061834;28;20531;-81
2023/02/22 09:07:23;;;;;;;24.75;10.02;;;5.50;70.80;;;;;;5059485;28;20036;-81
2023/02/22 09:09:49;;;;;;;23.58;11.50;;;5.50;71.20;;;;;;5058719;28;20540;-81
2023/02/22 09:12:14;;;;;;;17.27;8.02;;;5.60;71.70;;;;;;5053283;28;20086;-80
2023/02/22 09:14:41;;;;;;;11.85;4.15;;;5.60;69.10;;;;;;5053997;28;20060;-79
2023/02/22 09:17:07;;;;;;;18.65;7.97;;;5.50;67.80;;;;;;5057205;28;20056;-79
2023/02/22 09:19:33;;;;;;;22.02;9.65;;;5.50;68.50;;;;;;5061198;28;20030;-80
2023/02/22 09:21:59;;;;;;;25.77;7.90;;;5.60;68.10;;;;;;5053331;28;20040;-79
2023/02/22 09:24:25;;;;;;;13.68;5.25;;;5.60;67.70;;;;;;5050456;28;20071;-79
2023/02/22 09:26:54;;;;;;;13.32;4.60;;;5.70;67.60;;;;;;5054203;28;20048;-80
2023/02/22 09:29:25;;;;;;;29.73;13.30;;;5.70;67.50;;;;;;5054623;28;20021;-80
2023/02/22 09:31:53;;;;;;;11.07;4.07;;;5.80;67.80;;;;;;5041765;28;20044;-81
2023/02/22 09:34:21;;;;;;;10.70;5.15;;;5.80;67.20;;;;;;5046263;28;20466;-80
2023/02/22 09:36:48;;;;;;;12.77;6.50;;;5.80;67.60;;;;;;5047726;28;20017;-80
2023/02/22 09:39:16;;;;;;;9.60;3.90;;;6.00;68.80;;;;;;5046369;28;20028;-79
2023/02/22 09:42:16;;;;;;;9.93;3.97;;;6.10;68.80;;;;;;5046276;28;20516;-81
2023/02/22 09:45:11;;;;;;;11.00;4.65;;;6.00;68.50;;;;;;5046481;28;20792;-81
2023/02/22 09:47:59;;;;;;;15.98;6.20;;;6.00;67.40;;;;;;5054103;28;20029;-80
2023/02/22 09:50:29;;;;;;;188.48;68.07;;;6.10;69.10;;;;;;5058637;28;20028;-79
2023/02/22 09:53:30;;;;;;;116.53;39.17;;;6.10;68.20;;;;;;5037859;28;20041;-80
2023/02/22 09:56:11;;;;;;;145.35;55.30;;;6.00;67.10;;;;;;5053248;28;20056;-80
2023/02/22 09:58:44;;;;;;;82.07;30.70;;;6.00;68.60;;;;;;5060115;28;20036;-80
2023/02/22 10:01:38;;;;;;;17.13;8.93;;;6.00;67.70;;;;;;5057965;28;20029;-81
2023/02/22 10:04:29;;;;;;;12.05;5.13;;;6.00;67.30;;;;;;5060665;28;20094;-81
2023/02/22 10:06:54;;;;;;;18.60;7.63;;;5.90;65.90;;;;;;5065512;28;20500;-81
2023/02/22 10:09:24;;;;;;;22.25;12.07;;;5.90;66.40;;;;;;5053252;28;20021;-80
2023/02/22 10:12:07;;;;;;;9.80;3.58;;;5.90;67.50;;;;;;5058058;28;20036;-80
2023/02/22 10:15:06;;;;;;;22.40;10.85;;;5.90;67.20;;;;;;5062523;28;20054;-81
2023/02/22 10:18:17;;;;;;;44.22;18.63;;;5.90;67.60;;;;;;5057941;28;20056;-80
2023/02/22 10:21:12;;;;;;;21.67;8.77;;;5.90;66.90;;;;;;5049740;28;20063;-80
2023/02/22 10:24:03;;;;;;;20.80;7.45;;;5.90;65.60;;;;;;5040446;28;20118;-81
2023/02/22 10:26:35;;;;;;;9.23;3.97;;;5.90;65.30;;;;;;5061050;28;20075;-80
2023/02/22 10:29:10;;;;;;;19.55;8.18;;;5.80;65.00;;;;;;5051662;28;20032;-81
2023/02/22 10:31:41;;;;;;;12.77;6.18;;;5.80;65.80;;;;;;5052717;28;20055;-81
2023/02/22 10:34:16;;;;;;;16.48;7.63;;;5.90;66.30;;;;;;5051344;28;20037;-81
2023/02/22 10:36:46;;;;;;;45.05;21.00;;;6.00;66.80;;;;;;5070510;28;20032;-80
2023/02/22 10:39:36;;;;;;;22.98;11.25;;;5.90;65.60;;;;;;5066839;28;20040;-81
2023/02/22 10:42:05;;;;;;;77.88;28.42;;;5.90;65.00;;;;;;5059592;28;20024;-82
2023/02/22 10:44:35;;;;;;;37.88;14.75;;;5.90;65.00;;;;;;5059526;28;20416;-81
2023/02/22 10:47:09;;;;;;;80.93;30.02;;;6.00;65.00;;;;;;5059796;28;20036;-83
2023/02/22 10:49:55;;;;;;;84.43;33.22;;;6.00;64.60;;;;;;5058697;28;20033;-82
2023/02/22 10:52:30;;;;;;;128.63;51.00;;;6.00;65.00;;;;;;5058862;28;20039;-82
2023/02/22 10:54:57;;;;;;;51.63;23.15;;;6.00;64.00;;;;;;5055148;28;20021;-82
2023/02/22 10:57:34;;;;;;;23.88;9.65;;;6.10;64.90;;;;;;5059680;28;20031;-82
2023/02/22 11:00:25;;;;;;;20.98;9.32;;;6.30;65.50;;;;;;5059302;28;20034;-82
2023/02/22 11:02:56;;;;;;;26.50;10.75;;;6.30;63.80;;;;;;5061181;28;20023;-82
2023/02/22 11:05:51;;;;;;;12.35;5.00;;;6.40;62.60;;;;;;5058987;28;20100;-82
2023/02/22 11:08:19;;;;;;;29.90;12.63;;;6.40;61.90;;;;;;5044832;28;20041;-82
2023/02/22 11:10:53;;;;;;;13.82;6.97;;;6.50;63.70;;;;;;5061498;28;20118;-82
2023/02/22 11:13:32;;;;;;;20.20;7.53;;;6.40;63.30;;;;;;5060991;28;20037;-82
2023/02/22 11:16:01;;;;;;;20.52;7.28;;;6.40;63.90;;;;;;5064207;28;20021;-82
2023/02/22 11:18:32;;;;;;;7.05;4.15;;;6.30;63.80;;;;;;5063464;28;20101;-82
2023/02/22 11:21:11;;;;;;;8.20;4.07;;;6.30;63.40;;;;;;5062653;28;20421;-82
2023/02/22 11:23:40;;;;;;;15.38;6.72;;;6.40;63.50;;;;;;5063226;28;20390;-83
2023/02/22 11:26:09;;;;;;;32.05;10.90;;;6.50;64.00;;;;;;5064415;28;20025;-82
2023/02/22 11:28:36;;;;;;;24.05;10.10;;;6.80;64.90;;;;;;5055314;28;20386;-82
2023/02/22 11:31:12;;;;;;;48.15;17.17;;;6.80;62.20;;;;;;5054244;28;20026;-82
2023/02/22 11:33:38;;;;;;;30.00;9.45;;;6.90;62.80;;;;;;5055424;28;20048;-82
2023/02/22 11:36:08;;;;;;;14.27;5.22;;;6.90;62.20;;;;;;5054728;28;20037;-82
2023/02/22 11:38:36;;;;;;;17.67;7.57;;;7.00;61.20;;;;;;5054671;28;20037;-82
2023/02/22 11:41:21;;;;;;;24.67;8.20;;;7.00;62.20;;;;;;5054050;28;20075;-82
2023/02/22 11:43:49;;;;;;;29.42;10.23;;;7.10;61.10;;;;;;5054082;28;20033;-82
2023/02/22 11:46:27;;;;;;;66.93;23.98;;;7.10;61.40;;;;;;5053230;28;20131;-82
2023/02/22 11:49:09;;;;;;;48.80;17.85;;;7.10;60.30;;;;;;5055013;28;20122;-81
2023/02/22 11:52:07;;;;;;;57.40;23.50;;;6.90;60.80;;;;;;5053965;28;20025;-82
2023/02/22 11:55:00;;;;;;;12.45;5.45;;;7.00;61.90;;;;;;5053082;28;20029;-83
2023/02/22 11:57:46;;;;;;;17.60;6.03;;;7.10;61.80;;;;;;5052943;28;20090;-82
2023/02/22 12:00:24;;;;;;;93.10;36.38;;;7.10;61.30;;;;;;5053002;28;20119;-83
2023/02/22 12:02:59;;;;;;;83.20;36.63;;;7.10;61.60;;;;;;5054943;28;20032;-82
2023/02/22 12:05:58;;;;;;;72.47;32.03;;;7.10;61.70;;;;;;5052729;28;20108;-82
2023/02/22 12:08:51;;;;;;;78.43;37.67;;;7.10;61.30;;;;;;5053499;28;20528;-82
2023/02/22 12:11:53;;;;;;;59.20;32.20;;;7.00;61.40;;;;;;5053146;28;20501;-83
2023/02/22 12:14:25;;;;;;;22.80;11.95;;;6.60;60.20;;;;;;5053657;28;20045;-81
2023/02/22 12:17:07;;;;;;;56.63;26.75;;;6.60;60.60;;;;;;5053316;28;20037;-82
2023/02/22 12:19:51;;;;;;;23.67;12.82;;;6.70;62.60;;;;;;5052896;28;20025;-82
2023/02/22 12:22:23;;;;;;;12.60;8.90;;;6.60;61.20;;;;;;5055956;28;20047;-82
2023/02/22 12:24:59;;;;;;;21.20;18.17;;;6.70;61.40;;;;;;5053960;28;20036;-82
2023/02/22 12:27:48;;;;;;;22.45;14.98;;;6.60;60.60;;;;;;5054249;28;20120;-82
2023/02/22 12:30:22;;;;;;;168.80;98.13;;;6.70;60.40;;;;;;5053839;28;20368;-82
2023/02/22 12:32:58;;;;;;;19.13;11.32;;;6.70;60.70;;;;;;5054511;28;20037;-82
2023/02/22 12:35:41;;;;;;;12.70;5.63;;;6.70;60.10;;;;;;5053024;28;20033;-82
2023/02/22 12:38:43;;;;;;;72.47;43.47;;;6.70;60.20;;;;;;5053069;28;20040;-82
2023/02/22 12:41:21;;;;;;;31.30;20.40;;;6.70;61.60;;;;;;5058615;28;20032;-82
2023/02/22 12:43:55;;;;;;;157.00;105.72;;;6.50;60.20;;;;;;5061374;28;20106;-82
2023/02/22 12:46:27;;;;;;;64.05;43.40;;;6.50;61.30;;;;;;5059505;28;20044;-83
2023/02/22 12:49:17;;;;;;;37.53;24.98;;;6.40;60.40;;;;;;5070846;28;20029;-83
2023/02/22 12:51:53;;;;;;;8.93;4.53;;;6.40;61.40;;;;;;5061599;28;20032;-82
2023/02/22 12:54:49;;;;;;;24.75;18.75;;;6.40;60.40;;;;;;5068714;28;20021;-81
2023/02/22 12:57:57;;;;;;;9.40;8.18;;;6.40;61.40;;;;;;5058014;28;20037;-82
2023/02/22 13:00:29;;;;;;;15.43;8.43;;;6.50;60.60;;;;;;5045445;28;20029;-82
2023/02/22 13:03:05;;;;;;;17.10;8.82;;;6.50;61.40;;;;;;5060731;28;20478;-82